Beechworth, Victoria

11:59 AM AEST on July 04, 2015 (GMT +1000)
Wooragee | | Change Station
CLOSE
Current Station
Personal Weather Station
Location: Wooragee, VICTORIA
Elevation: 1125 ft
Nearby Weather Stations

Elev 1125 ft 36.30 °S, 146.69 °E | Updated 9 minutes ago

Mostly Cloudy
Mostly Cloudy
46.5 °F
Feels Like 46 °F
N
3.0
Wind Variable Wind from NNE
Gusts 3.0 mph

Today
High -- | Low -- °F
--% Chance of Precip.
Yesterday
High -- | Low -- °F
Precip. -- in
7:25 AM 5:10 PM
Waning Gibbous, 95% visible
Pressure 30.27 in
Visibility 6.2 miles
Clouds Scattered Clouds 3900 ft
Mostly Cloudy 4600 ft
Windchill 46 °F
Dew Point 39 °F
Humidity 74%
Rainfall 0.00 in
Snow Depth Not available.
UV 1 out of 12
Pollen Not available.
Air Quality Not available.
Flu Activity Not available.
METAR YWGT 040100Z AUTO 01004KT 9999 // SCT039 BKN046 07/04 Q1025

More Conditions Fewer Conditions

Pressure 30.27 in
Visibility 6.2 miles
Clouds Scattered Clouds 3900 ft
Mostly Cloudy 4600 ft
Windchill 46 °F
Dew Point 39 °F
Humidity 74%
Rainfall 0.00 in
Snow Depth Not available.
UV 1 out of 12
Pollen Not available.
Air Quality Not available.
Flu Activity Not available.
METAR YWGT 040100Z AUTO 01004KT 9999 // SCT039 BKN046 07/04 Q1025

More Conditions Fewer Conditions

10-Day Weather Forecast

×

Almanac

Astronomy

Jul. 04, 2015 Rise Set
Actual Time
Civil Twilight
Nautical Twilight
Astronomical Twilight
Moon
Length of Visible Light
Length of Day
Tomorrow will be .
, % of the Moon is Illuminated

Today's Extremes

Country Highs Country Lows

Community

WunderPhotos

Upload Photos

1,834,868 photos uploaded!

WunderBlogs® & News

Nearby

Air Quality

  Air Quality AQ Index Pollutant
Not available.

Snow Depth

Station Depth Elevation

Earthquake Activity

City Distance Mag. Time & Date
Minimum magnitude displayed is 2.5.

Coastal Water Temperatures

Place Temperature

Stations

Nearby Weather Stations

Station Location Temp. Windchill Dew Point Humidity Wind Precip. Elev Updated Type